createdAt,value
2018-02-20T00:00:53.734Z,-0.75
2018-02-20T00:03:22.121Z,-0.83
2018-02-20T00:05:52.750Z,-0.89
2018-02-20T00:08:21.061Z,-0.93
2018-02-20T00:10:49.433Z,-0.87
2018-02-20T00:13:17.783Z,-0.88
2018-02-20T00:15:46.156Z,-1.02
2018-02-20T00:18:15.251Z,-0.96
2018-02-20T00:20:43.619Z,-1.03
2018-02-20T00:23:11.945Z,-1.12
2018-02-20T00:25:40.280Z,-1.09
2018-02-20T00:28:08.646Z,-1.09
2018-02-20T00:30:36.975Z,-1.15
2018-02-20T00:33:05.340Z,-1.20
2018-02-20T00:35:33.684Z,-1.16
2018-02-20T00:38:02.048Z,-1.18
2018-02-20T00:40:30.784Z,-1.22
2018-02-20T00:42:59.112Z,-1.25
2018-02-20T00:45:27.480Z,-1.37
2018-02-20T00:47:56.256Z,-1.43
2018-02-20T00:50:25.388Z,-1.76
2018-02-20T00:52:53.728Z,-1.51
2018-02-20T00:55:22.872Z,-1.48
2018-02-20T00:57:51.244Z,-1.59
2018-02-20T01:00:20.068Z,-1.57
2018-02-20T01:02:48.418Z,-1.53
2018-02-20T01:05:16.772Z,-1.51
2018-02-20T01:07:45.118Z,-1.44
2018-02-20T01:10:14.216Z,-1.49
2018-02-20T01:12:43.339Z,-1.51
2018-02-20T01:15:11.678Z,-1.49
2018-02-20T01:17:40.047Z,-1.40
2018-02-20T01:20:08.393Z,-1.43
2018-02-20T01:22:36.728Z,-1.46
2018-02-20T01:25:06.221Z,-1.47
2018-02-20T01:27:35.325Z,-1.52
2018-02-20T01:30:04.824Z,-1.47
2018-02-20T01:32:33.936Z,-1.46
2018-02-20T01:35:02.441Z,-1.54
2018-02-20T01:37:30.780Z,-1.51
2018-02-20T01:39:59.160Z,-1.53
2018-02-20T01:42:28.263Z,-1.51
2018-02-20T01:44:57.387Z,-1.53
2018-02-20T01:47:25.767Z,-1.56
2018-02-20T01:49:54.107Z,-1.57
2018-02-20T01:52:23.244Z,-1.55
2018-02-20T01:54:51.571Z,-1.58
2018-02-20T01:57:19.918Z,-1.55
2018-02-20T01:59:48.263Z,-1.59
2018-02-20T02:02:16.611Z,-1.58
2018-02-20T02:04:45.758Z,-1.65
2018-02-20T02:07:14.167Z,-1.64
2018-02-20T02:09:42.499Z,-1.64
2018-02-20T02:12:10.875Z,-1.67
2018-02-20T02:14:39.255Z,-1.75
2018-02-20T02:17:07.591Z,-1.82
2018-02-20T02:19:46.621Z,-1.90
2018-02-20T02:22:15.715Z,-1.84
2018-02-20T02:24:44.855Z,-1.84
2018-02-20T02:27:13.199Z,-1.86
2018-02-20T02:29:42.287Z,-1.91
2018-02-20T02:32:11.419Z,-1.99
2018-02-20T02:34:39.745Z,-1.87
2018-02-20T02:37:08.114Z,-1.98
2018-02-20T02:39:36.442Z,-1.96
2018-02-20T02:42:04.823Z,-1.91
2018-02-20T02:44:33.162Z,-1.93
2018-02-20T02:47:01.504Z,-1.94
2018-02-20T02:49:29.863Z,-1.98
2018-02-20T02:51:58.587Z,-1.95
2018-02-20T02:54:26.912Z,-2.06
2018-02-20T02:56:55.298Z,-1.97
2018-02-20T02:59:23.621Z,-1.97
2018-02-20T03:01:51.957Z,-1.98
2018-02-20T03:04:20.323Z,-2.10
2018-02-20T03:06:48.680Z,-2.01
2018-02-20T03:09:17.776Z,-2.27
2018-02-20T03:11:46.930Z,-2.06
2018-02-20T03:14:15.256Z,-2.12
2018-02-20T03:16:44.373Z,-2.18
2018-02-20T03:19:15.466Z,-2.20
2018-02-20T03:21:43.832Z,-2.19
2018-02-20T03:24:12.211Z,-2.29
2018-02-20T03:26:40.556Z,-2.35
2018-02-20T03:29:08.887Z,-2.36
2018-02-20T03:31:37.295Z,-2.33
2018-02-20T03:34:05.795Z,-2.27
2018-02-20T03:36:34.130Z,-2.34
2018-02-20T03:39:03.358Z,-2.43
2018-02-20T03:41:31.686Z,-2.50
2018-02-20T03:44:00.059Z,-2.48
2018-02-20T03:46:28.442Z,-2.48
2018-02-20T03:48:56.774Z,-2.51
2018-02-20T03:51:25.146Z,-2.53
2018-02-20T03:53:53.462Z,-2.63
2018-02-20T03:56:21.839Z,-2.57
2018-02-20T03:58:50.182Z,-2.54
2018-02-20T04:01:18.570Z,-2.47
2018-02-20T04:03:46.906Z,-2.55
2018-02-20T04:06:16.027Z,-2.58
2018-02-20T04:08:44.403Z,-2.57
2018-02-20T04:11:12.761Z,-2.66
2018-02-20T04:13:41.134Z,-2.67
2018-02-20T04:16:10.238Z,-2.65
2018-02-20T04:18:39.390Z,-2.62
2018-02-20T04:21:07.724Z,-2.70
2018-02-20T04:23:36.089Z,-2.76
2018-02-20T04:26:05.202Z,-2.72
2018-02-20T04:28:33.512Z,-2.74
2018-02-20T04:31:01.871Z,-2.85
2018-02-20T04:33:30.203Z,-2.75
2018-02-20T04:35:59.373Z,-2.80
2018-02-20T04:38:27.693Z,-2.75
2018-02-20T04:40:56.877Z,-2.71
2018-02-20T04:43:25.233Z,-2.81
2018-02-20T04:45:53.556Z,-2.89
2018-02-20T04:48:21.967Z,-2.92
2018-02-20T04:50:50.304Z,-2.90
2018-02-20T04:53:18.658Z,-2.86
2018-02-20T04:55:47.003Z,-2.87
2018-02-20T04:58:15.373Z,-2.83
2018-02-20T05:00:43.730Z,-3.03
2018-02-20T05:03:12.065Z,-2.99
2018-02-20T05:05:40.412Z,-2.95
2018-02-20T05:08:09.148Z,-2.97
2018-02-20T05:10:38.282Z,-3.02
2018-02-20T05:13:06.622Z,-2.97
2018-02-20T05:15:35.765Z,-3.02
2018-02-20T05:18:04.106Z,-3.10
2018-02-20T05:20:32.820Z,-3.24
2018-02-20T05:23:01.173Z,-3.24
2018-02-20T05:25:29.506Z,-3.23
2018-02-20T05:27:57.890Z,-3.27
2018-02-20T05:30:26.218Z,-3.33
2018-02-20T05:32:54.576Z,-3.55
2018-02-20T05:35:23.683Z,-3.49
2018-02-20T05:37:52.030Z,-3.34
2018-02-20T05:40:20.402Z,-3.29
2018-02-20T05:42:48.785Z,-3.29
2018-02-20T05:45:17.897Z,-3.37
2018-02-20T05:47:47.030Z,-3.40
2018-02-20T05:50:16.134Z,-3.46
2018-02-20T05:52:44.557Z,-3.40
2018-02-20T05:55:13.674Z,-3.34
2018-02-20T05:57:42.793Z,-3.24
2018-02-20T06:00:11.161Z,-3.19
2018-02-20T06:02:39.514Z,-3.19
2018-02-20T06:05:08.654Z,-3.20
2018-02-20T06:07:37.012Z,-3.21
2018-02-20T06:10:05.784Z,-3.26
2018-02-20T06:12:34.124Z,-3.23
2018-02-20T06:15:02.568Z,-3.09
2018-02-20T06:17:30.949Z,-3.08
2018-02-20T06:19:59.323Z,-3.02
2018-02-20T06:22:27.661Z,-2.93
2018-02-20T06:24:56.802Z,-2.86
2018-02-20T06:27:25.926Z,-2.79
2018-02-20T06:29:54.650Z,-2.74
2018-02-20T06:32:23.404Z,-2.67
2018-02-20T06:34:53.081Z,-2.59
2018-02-20T06:37:21.425Z,-2.60
2018-02-20T06:39:49.801Z,-2.56
2018-02-20T06:42:18.162Z,-2.52
2018-02-20T06:44:47.293Z,-2.48
2018-02-20T06:47:15.689Z,-2.47
2018-02-20T06:49:44.026Z,-2.37
2018-02-20T06:52:13.112Z,-2.32
2018-02-20T06:54:42.285Z,-2.26
2018-02-20T06:57:10.637Z,-2.23
2018-02-20T06:59:39.013Z,-2.19
2018-02-20T07:02:07.336Z,-2.21
2018-02-20T07:04:36.455Z,-2.19
2018-02-20T07:07:04.805Z,-2.14
2018-02-20T07:09:33.958Z,-2.12
2018-02-20T07:12:02.286Z,-2.17
2018-02-20T07:14:31.381Z,-2.20
2018-02-20T07:16:59.743Z,-2.20
2018-02-20T07:19:28.064Z,-2.15
2018-02-20T07:21:56.379Z,-2.07
2018-02-20T07:24:24.745Z,-2.11
2018-02-20T07:26:53.148Z,-2.04
2018-02-20T07:29:21.554Z,-1.96
2018-02-20T07:31:49.897Z,-1.94
2018-02-20T07:34:18.277Z,-1.91
2018-02-20T07:36:46.620Z,-1.78
2018-02-20T07:39:14.970Z,-1.65
2018-02-20T07:41:43.336Z,-1.61
2018-02-20T07:44:12.433Z,-1.54
2018-02-20T07:46:41.544Z,-1.44
2018-02-20T07:49:09.920Z,-1.57
2018-02-20T07:51:38.243Z,-1.54
2018-02-20T07:54:06.618Z,-1.50
2018-02-20T07:56:35.009Z,-1.49
2018-02-20T07:59:03.348Z,-1.48
2018-02-20T08:01:31.684Z,-1.49
2018-02-20T08:04:01.545Z,-1.42
2018-02-20T08:06:30.664Z,-1.49
2018-02-20T08:08:58.979Z,-1.27
2018-02-20T08:11:27.348Z,-1.11
2018-02-20T08:13:56.507Z,-1.12
2018-02-20T08:16:24.844Z,-1.04
2018-02-20T08:18:53.199Z,-1.17
2018-02-20T08:21:22.275Z,-1.03
2018-02-20T08:23:50.652Z,-1.11
2018-02-20T08:26:18.966Z,-1.02
2018-02-20T08:28:47.350Z,-0.78
2018-02-20T08:31:15.707Z,-0.84
2018-02-20T08:33:44.048Z,-1.00
2018-02-20T08:36:12.431Z,-1.04
2018-02-20T08:38:40.763Z,-1.11
2018-02-20T08:41:09.111Z,-0.96
2018-02-20T08:43:37.422Z,-0.72
2018-02-20T08:46:05.770Z,-0.50
2018-02-20T08:48:34.101Z,-0.51
2018-02-20T08:51:02.508Z,-0.42
2018-02-20T08:53:30.848Z,-0.29
2018-02-20T08:55:59.264Z,-0.04
2018-02-20T08:58:27.607Z,-0.08
2018-02-20T09:00:55.970Z,-0.17
2018-02-20T09:03:24.300Z,-0.09
2018-02-20T09:05:52.633Z,0.02
2018-02-20T09:08:21.009Z,-0.02
2018-02-20T09:10:49.328Z,0.45
2018-02-20T09:13:17.632Z,0.43
2018-02-20T09:15:46.744Z,0.54
2018-02-20T09:18:15.104Z,0.38
2018-02-20T09:20:44.192Z,0.82
2018-02-20T09:23:12.550Z,1.22
2018-02-20T09:25:40.865Z,1.18
2018-02-20T09:28:09.990Z,1.41
2018-02-20T09:30:38.346Z,1.62
2018-02-20T09:33:06.696Z,1.46
2018-02-20T09:35:35.071Z,1.20
2018-02-20T09:38:04.187Z,0.73
2018-02-20T09:40:32.518Z,0.87
2018-02-20T09:43:00.904Z,1.18
2018-02-20T09:45:29.219Z,1.44
2018-02-20T09:47:57.522Z,1.10
2018-02-20T09:50:26.649Z,1.18
2018-02-20T09:52:55.004Z,1.01
2018-02-20T09:55:23.348Z,0.86
2018-02-20T09:57:52.465Z,0.97
2018-02-20T10:00:20.889Z,0.81
2018-02-20T10:02:49.217Z,0.98
2018-02-20T10:05:18.317Z,1.13
2018-02-20T10:07:46.669Z,1.08
2018-02-20T10:10:15.801Z,1.31
2018-02-20T10:12:44.148Z,1.30
2018-02-20T10:15:14.007Z,1.29
2018-02-20T10:17:42.333Z,1.66
2018-02-20T10:20:11.415Z,1.96
2018-02-20T10:22:40.551Z,1.95
2018-02-20T10:25:08.879Z,1.47
2018-02-20T10:27:37.209Z,1.48
2018-02-20T10:30:05.557Z,1.80
2018-02-20T10:32:34.823Z,1.91
2018-02-20T10:35:03.179Z,1.88
2018-02-20T10:37:31.530Z,1.62
2018-02-20T10:39:59.851Z,1.79
2018-02-20T10:42:28.200Z,2.00
2018-02-20T10:44:56.524Z,1.66
2018-02-20T10:47:24.877Z,1.66
2018-02-20T10:49:53.200Z,1.68
2018-02-20T10:52:22.336Z,1.82
2018-02-20T10:54:50.682Z,1.83
2018-02-20T10:57:19.017Z,1.73
2018-02-20T10:59:47.361Z,2.04
2018-02-20T11:02:15.685Z,2.38
2018-02-20T11:04:44.058Z,2.55
2018-02-20T11:07:12.372Z,2.53
2018-02-20T11:09:40.742Z,2.34
2018-02-20T11:12:09.059Z,2.26
2018-02-20T11:14:37.371Z,2.19
2018-02-20T11:17:05.717Z,2.56
2018-02-20T11:19:34.097Z,2.48
2018-02-20T11:22:02.430Z,2.45
2018-02-20T11:24:30.747Z,2.87
2018-02-20T11:26:59.114Z,2.59
2018-02-20T11:29:27.447Z,2.66
2018-02-20T11:31:56.531Z,2.84
2018-02-20T11:34:24.890Z,2.72
2018-02-20T11:36:53.218Z,2.80
2018-02-20T11:39:21.553Z,3.07
2018-02-20T11:41:49.914Z,3.41
2018-02-20T11:44:18.247Z,3.41
2018-02-20T11:46:46.611Z,3.49
2018-02-20T11:49:15.702Z,3.22
2018-02-20T11:51:44.067Z,3.16
2018-02-20T11:54:13.195Z,3.47
2018-02-20T11:56:41.564Z,3.03
2018-02-20T11:59:09.944Z,3.21
2018-02-20T12:01:38.273Z,3.27
2018-02-20T12:04:06.646Z,2.92
2018-02-20T12:06:34.995Z,2.99
2018-02-20T12:09:03.360Z,3.12
2018-02-20T12:11:31.677Z,3.16
2018-02-20T12:14:00.023Z,2.95
2018-02-20T12:16:28.399Z,2.98
2018-02-20T12:18:56.716Z,3.21
2018-02-20T12:21:25.071Z,3.23
2018-02-20T12:23:53.406Z,3.07
2018-02-20T12:26:22.540Z,3.22
2018-02-20T12:28:50.874Z,3.34
2018-02-20T12:31:19.994Z,3.11
2018-02-20T12:33:48.315Z,3.21
2018-02-20T12:36:16.652Z,3.16
2018-02-20T12:38:45.012Z,3.28
2018-02-20T12:41:14.108Z,3.19
2018-02-20T12:43:43.243Z,3.12
2018-02-20T12:46:11.592Z,3.14
2018-02-20T12:48:39.913Z,3.04
2018-02-20T12:51:08.259Z,3.16
2018-02-20T12:53:36.655Z,3.22
2018-02-20T12:56:04.947Z,3.23
2018-02-20T12:58:33.278Z,3.29
2018-02-20T13:01:01.644Z,3.28
2018-02-20T13:03:30.777Z,3.38
2018-02-20T13:05:59.109Z,3.44
2018-02-20T13:08:28.202Z,3.44
2018-02-20T13:10:57.342Z,3.42
2018-02-20T13:13:25.674Z,3.48
2018-02-20T13:15:54.776Z,3.50
2018-02-20T13:18:23.900Z,3.51
2018-02-20T13:20:52.262Z,3.54
2018-02-20T13:23:20.638Z,3.67
2018-02-20T13:25:49.740Z,3.67
2018-02-20T13:28:18.097Z,3.76
2018-02-20T13:30:47.198Z,3.95
2018-02-20T13:33:16.320Z,3.92
2018-02-20T13:35:44.654Z,4.05
2018-02-20T13:38:13.014Z,4.01
2018-02-20T13:40:41.322Z,3.92
2018-02-20T13:43:10.434Z,4.09
2018-02-20T13:45:39.180Z,4.21
2018-02-20T13:48:07.520Z,4.10
2018-02-20T13:50:35.874Z,4.01
2018-02-20T13:53:04.276Z,3.90
2018-02-20T13:55:32.812Z,4.02
2018-02-20T13:58:01.948Z,3.94
2018-02-20T14:00:30.309Z,4.02
2018-02-20T14:02:59.074Z,4.08
2018-02-20T14:05:28.163Z,4.01
2018-02-20T14:07:56.522Z,4.05
2018-02-20T14:10:24.838Z,4.03
2018-02-20T14:12:53.162Z,4.12
2018-02-20T14:15:21.549Z,4.07
2018-02-20T14:17:49.920Z,4.11
2018-02-20T14:20:18.263Z,4.08
2018-02-20T14:22:46.650Z,4.12
2018-02-20T14:25:15.060Z,4.07
2018-02-20T14:27:43.429Z,4.16
2018-02-20T14:30:11.801Z,4.31
2018-02-20T14:32:40.238Z,4.25
2018-02-20T14:35:09.379Z,4.35
2018-02-20T14:37:37.729Z,4.24
2018-02-20T14:40:06.090Z,4.25
2018-02-20T14:42:35.237Z,4.27
2018-02-20T14:45:03.578Z,4.30
2018-02-20T14:47:43.107Z,4.62
2018-02-20T14:50:12.220Z,4.40
2018-02-20T14:52:40.600Z,4.34
2018-02-20T14:55:09.276Z,4.49
2018-02-20T14:57:37.637Z,4.43
2018-02-20T15:00:06.835Z,4.42
2018-02-20T15:02:35.954Z,4.58
2018-02-20T15:05:04.315Z,4.40
2018-02-20T15:07:33.420Z,4.40
2018-02-20T15:10:02.144Z,4.27
2018-02-20T15:12:30.483Z,4.22
2018-02-20T15:14:58.822Z,4.24
2018-02-20T15:17:27.167Z,4.31
2018-02-20T15:19:56.311Z,4.02
2018-02-20T15:22:25.419Z,3.93
2018-02-20T15:24:54.554Z,4.05
2018-02-20T15:27:23.029Z,4.08
2018-02-20T15:29:52.341Z,3.90
2018-02-20T15:32:20.696Z,3.81
2018-02-20T15:34:49.077Z,3.75
2018-02-20T15:37:18.078Z,3.72
2018-02-20T15:39:46.443Z,3.64
2018-02-20T15:42:24.570Z,3.48
2018-02-20T15:44:52.951Z,3.35
2018-02-20T15:47:21.338Z,3.29
2018-02-20T15:49:49.673Z,3.25
2018-02-20T15:52:18.101Z,3.16
2018-02-20T15:54:46.524Z,3.07
2018-02-20T15:57:14.888Z,3.02
2018-02-20T15:59:43.282Z,2.93
2018-02-20T16:02:11.608Z,2.84
2018-02-20T16:04:39.945Z,2.80
2018-02-20T16:07:09.093Z,2.75
2018-02-20T16:09:39.187Z,2.64
2018-02-20T16:12:09.238Z,2.60
2018-02-20T16:14:37.578Z,2.51
2018-02-20T16:17:06.981Z,2.47
2018-02-20T16:19:35.341Z,2.35
2018-02-20T16:22:04.857Z,2.26
2018-02-20T16:24:33.821Z,2.24
2018-02-20T16:27:02.901Z,2.21
2018-02-20T16:29:32.071Z,2.10
2018-02-20T16:32:00.433Z,2.06
2018-02-20T16:34:28.752Z,2.09
2018-02-20T16:36:58.270Z,1.97
2018-02-20T16:39:26.625Z,1.88
2018-02-20T16:41:55.765Z,1.85
2018-02-20T16:44:24.106Z,1.77
2018-02-20T16:46:53.248Z,1.59
2018-02-20T16:49:22.382Z,1.70
2018-02-20T16:51:51.104Z,1.55
2018-02-20T16:54:19.496Z,1.56
2018-02-20T16:56:49.336Z,1.53
2018-02-20T16:59:18.094Z,1.52
2018-02-20T17:01:46.830Z,1.49
2018-02-20T17:04:15.951Z,1.49
2018-02-20T17:06:45.092Z,1.40
2018-02-20T17:09:14.511Z,1.24
2018-02-20T17:11:42.949Z,1.24
2018-02-20T17:14:11.768Z,1.23
2018-02-20T17:16:40.897Z,1.08
2018-02-20T17:19:09.297Z,0.95
2018-02-20T17:21:38.534Z,0.99
2018-02-20T17:24:06.848Z,0.93
2018-02-20T17:26:35.267Z,0.73
2018-02-20T17:29:03.608Z,0.73
2018-02-20T17:31:33.072Z,0.25
2018-02-20T17:34:01.484Z,0.73
2018-02-20T17:36:29.956Z,0.57
2018-02-20T17:38:58.415Z,0.43
2018-02-20T17:41:27.208Z,0.36
2018-02-20T17:43:55.577Z,0.36
2018-02-20T17:46:23.996Z,0.47
2018-02-20T17:48:53.133Z,0.52
2018-02-20T17:51:22.448Z,0.40
2018-02-20T17:53:51.394Z,0.32
2018-02-20T17:56:20.651Z,0.29
2018-02-20T17:58:49.028Z,0.20
2018-02-20T18:01:17.390Z,0.20
2018-02-20T18:03:45.710Z,0.14
2018-02-20T18:06:14.051Z,0.00
2018-02-20T18:08:43.198Z,0.12
2018-02-20T18:11:13.394Z,0.00
2018-02-20T18:13:42.944Z,-0.07
2018-02-20T18:16:12.054Z,0.00
2018-02-20T18:18:40.449Z,-0.04
2018-02-20T18:21:08.824Z,0.04
2018-02-20T18:23:37.236Z,0.03
2018-02-20T18:26:05.679Z,-0.04
2018-02-20T18:28:34.053Z,0.02
2018-02-20T18:31:02.459Z,-0.09
2018-02-20T18:33:30.810Z,-0.02
2018-02-20T18:35:59.919Z,0.02
2018-02-20T18:38:29.038Z,-0.04
2018-02-20T18:40:59.870Z,-0.13
2018-02-20T18:43:28.853Z,-0.16
2018-02-20T18:45:57.207Z,-0.26
2018-02-20T18:48:25.563Z,-0.28
2018-02-20T18:50:58.428Z,-0.41
2018-02-20T18:53:27.501Z,-0.31
2018-02-20T18:55:56.641Z,-0.42
2018-02-20T18:58:25.066Z,-0.39
2018-02-20T19:00:54.203Z,-0.49
2018-02-20T19:03:23.473Z,-0.32
2018-02-20T19:05:52.293Z,-0.26
2018-02-20T19:08:22.433Z,-0.24
2018-02-20T19:10:51.200Z,-0.36
2018-02-20T19:13:21.220Z,-0.26
2018-02-20T19:15:50.449Z,-0.42
2018-02-20T19:18:18.772Z,-0.24
2018-02-20T19:20:47.152Z,-0.31
2018-02-20T19:23:15.786Z,-0.39
2018-02-20T19:25:44.915Z,-0.64
2018-02-20T19:28:13.673Z,-0.55
2018-02-20T19:30:44.803Z,-0.50
2018-02-20T19:33:14.109Z,-0.45
2018-02-20T19:35:43.007Z,-0.49
2018-02-20T19:38:11.383Z,-0.70
2018-02-20T19:40:40.639Z,-0.87
2018-02-20T19:43:08.977Z,-0.67
2018-02-20T19:45:38.048Z,-0.66
2018-02-20T19:48:07.403Z,-0.89
2018-02-20T19:50:37.023Z,-0.67
2018-02-20T19:53:06.130Z,-0.68
2018-02-20T19:55:34.505Z,-0.70
2018-02-20T19:58:03.295Z,-0.91
2018-02-20T20:00:34.418Z,-0.91
2018-02-20T20:03:02.847Z,-0.96
2018-02-20T20:05:31.276Z,-0.90
2018-02-20T20:08:00.429Z,-1.03
2018-02-20T20:10:29.687Z,-1.01
2018-02-20T20:12:58.113Z,-0.81
2018-02-20T20:15:27.208Z,-1.00
2018-02-20T20:17:56.479Z,-0.96
2018-02-20T20:20:36.904Z,-0.86
2018-02-20T20:22:55.945Z,-0.90
2018-02-20T20:25:24.290Z,-0.97
2018-02-20T20:27:53.813Z,-0.96
2018-02-20T20:30:22.165Z,-0.96
2018-02-20T20:32:51.312Z,-1.01
2018-02-20T20:35:20.287Z,-1.05
2018-02-20T20:37:48.651Z,-1.01
2018-02-20T20:40:19.519Z,-1.09
2018-02-20T20:42:48.692Z,-1.08
2018-02-20T20:45:18.036Z,-1.16
2018-02-20T20:47:47.092Z,-1.17
2018-02-20T20:50:16.177Z,-1.15
2018-02-20T20:52:44.612Z,-1.08
2018-02-20T20:55:12.985Z,-1.12
2018-02-20T20:57:42.116Z,-1.01
2018-02-20T21:00:11.254Z,-1.02
2018-02-20T21:02:40.361Z,-0.94
2018-02-20T21:05:10.207Z,-0.94
2018-02-20T21:07:38.817Z,-0.98
2018-02-20T21:10:07.296Z,-1.21
2018-02-20T21:12:35.699Z,-1.32
2018-02-20T21:15:04.059Z,-1.30
2018-02-20T21:17:32.454Z,-1.45
2018-02-20T21:20:01.717Z,-1.37
2018-02-20T21:22:31.014Z,-1.31
2018-02-20T21:24:59.458Z,-1.42
2018-02-20T21:27:30.057Z,-1.30
2018-02-20T21:29:59.266Z,-1.22
2018-02-20T21:32:27.607Z,-1.19
2018-02-20T21:34:56.014Z,-1.32
2018-02-20T21:37:27.030Z,-1.15
2018-02-20T21:39:57.035Z,-1.22
2018-02-20T21:42:25.540Z,-1.16
2018-02-20T21:44:53.909Z,-1.11
2018-02-20T21:47:23.370Z,-1.14
2018-02-20T21:49:51.768Z,-1.21
2018-02-20T21:52:20.265Z,-1.20
2018-02-20T21:54:51.400Z,-1.41
2018-02-20T21:57:19.724Z,-1.35
2018-02-20T21:59:49.689Z,-1.32
2018-02-20T22:02:18.021Z,-1.42
2018-02-20T22:04:46.355Z,-1.43
2018-02-20T22:07:14.725Z,-1.23
2018-02-20T22:09:43.070Z,-1.32
2018-02-20T22:12:12.215Z,-1.35
2018-02-20T22:14:40.541Z,-1.26
2018-02-20T22:17:09.672Z,-1.24
2018-02-20T22:19:37.993Z,-1.26
2018-02-20T22:22:06.360Z,-1.29
2018-02-20T22:24:34.926Z,-1.27
2018-02-20T22:27:03.663Z,-1.43
2018-02-20T22:29:32.789Z,-1.38
2018-02-20T22:32:01.142Z,-1.32
2018-02-20T22:34:29.478Z,-1.46
2018-02-20T22:37:01.530Z,-1.44
2018-02-20T22:39:30.277Z,-1.39
2018-02-20T22:41:58.661Z,-1.52
2018-02-20T22:44:26.977Z,-1.67
2018-02-20T22:46:55.344Z,-1.63
2018-02-20T22:49:23.723Z,-1.60
2018-02-20T22:51:52.085Z,-1.75
2018-02-20T22:54:20.457Z,-1.77
2018-02-20T22:56:48.819Z,-1.74
2018-02-20T22:59:17.202Z,-2.01
2018-02-20T23:01:45.536Z,-1.89
2018-02-20T23:04:14.375Z,-1.86
2018-02-20T23:06:42.743Z,-1.97
2018-02-20T23:09:11.069Z,-1.95
2018-02-20T23:11:47.843Z,-1.91
2018-02-20T23:14:16.189Z,-1.98
2018-02-20T23:16:44.503Z,-2.15
2018-02-20T23:19:12.870Z,-2.31
2018-02-20T23:21:41.179Z,-2.30
2018-02-20T23:24:09.537Z,-2.20
2018-02-20T23:26:37.877Z,-2.20
2018-02-20T23:29:06.239Z,-2.17
2018-02-20T23:31:34.633Z,-2.29
2018-02-20T23:34:02.949Z,-2.26
2018-02-20T23:36:31.324Z,-2.19
2018-02-20T23:38:59.669Z,-2.27
2018-02-20T23:41:28.025Z,-2.45
2018-02-20T23:43:56.432Z,-2.25
2018-02-20T23:46:24.784Z,-2.26
2018-02-20T23:48:53.129Z,-2.30
2018-02-20T23:51:26.921Z,-2.26
2018-02-20T23:53:55.273Z,-2.36
2018-02-20T23:56:23.661Z,-2.39
2018-02-20T23:58:52.037Z,-2.43
